sensor_id;sensor_type;location;lat;lon;timestamp;pressure;altitude;pressure_sealevel;temperature;humidity
6134;BME280;3098;42.678;23.364;2023-11-21T00:00:01;94855.75;;;4.02;100.00
6134;BME280;3098;42.678;23.364;2023-11-21T00:02:29;94754.38;;;3.47;100.00
6134;BME280;3098;42.678;23.364;2023-11-21T00:04:57;94769.56;;;3.56;100.00
6134;BME280;3098;42.678;23.364;2023-11-21T00:07:25;94848.63;;;4.13;100.00
6134;BME280;3098;42.678;23.364;2023-11-21T00:09:53;94774.00;;;3.65;100.00
6134;BME280;3098;42.678;23.364;2023-11-21T00:12:22;94857.25;;;4.19;100.00
6134;BME280;3098;42.678;23.364;2023-11-21T00:14:50;94849.66;;;4.17;100.00
6134;BME280;3098;42.678;23.364;2023-11-21T00:17:17;94849.91;;;4.16;100.00
6134;BME280;3098;42.678;23.364;2023-11-21T00:19:45;94714.63;;;3.20;100.00
6134;BME280;3098;42.678;23.364;2023-11-21T00:22:12;94863.34;;;4.04;100.00
6134;BME280;3098;42.678;23.364;2023-11-21T00:24:41;94852.31;;;4.02;100.00
6134;BME280;3098;42.678;23.364;2023-11-21T00:27:08;94852.59;;;4.05;100.00
6134;BME280;3098;42.678;23.364;2023-11-21T00:29:38;94801.25;;;3.79;100.00
6134;BME280;3098;42.678;23.364;2023-11-21T00:32:06;94858.84;;;4.10;100.00
6134;BME280;3098;42.678;23.364;2023-11-21T00:34:34;94852.06;;;3.98;100.00
6134;BME280;3098;42.678;23.364;2023-11-21T00:37:01;94847.34;;;3.95;100.00
6134;BME280;3098;42.678;23.364;2023-11-21T00:39:30;94668.84;;;2.82;100.00
6134;BME280;3098;42.678;23.364;2023-11-21T00:41:58;94808.28;;;3.89;100.00
6134;BME280;3098;42.678;23.364;2023-11-21T00:44:25;94804.91;;;3.73;100.00
6134;BME280;3098;42.678;23.364;2023-11-21T00:46:54;94805.47;;;3.70;100.00
6134;BME280;3098;42.678;23.364;2023-11-21T00:49:21;94770.91;;;3.48;100.00
6134;BME280;3098;42.678;23.364;2023-11-21T00:51:49;94845.53;;;3.96;100.00
6134;BME280;3098;42.678;23.364;2023-11-21T00:54:16;94859.41;;;4.01;100.00
6134;BME280;3098;42.678;23.364;2023-11-21T00:56:44;94846.06;;;3.93;100.00
6134;BME280;3098;42.678;23.364;2023-11-21T00:59:13;94789.75;;;3.55;100.00
6134;BME280;3098;42.678;23.364;2023-11-21T01:01:40;94842.19;;;3.65;100.00
6134;BME280;3098;42.678;23.364;2023-11-21T01:04:10;94788.50;;;3.22;100.00
6134;BME280;3098;42.678;23.364;2023-11-21T01:06:37;94846.91;;;3.58;100.00
6134;BME280;3098;42.678;23.364;2023-11-21T01:09:04;94797.19;;;3.18;100.00
6134;BME280;3098;42.678;23.364;2023-11-21T01:11:34;94791.41;;;3.16;100.00
6134;BME280;3098;42.678;23.364;2023-11-21T01:14:02;94757.38;;;2.85;100.00
6134;BME280;3098;42.678;23.364;2023-11-21T01:16:30;94840.13;;;3.42;100.00
6134;BME280;3098;42.678;23.364;2023-11-21T01:18:59;94701.88;;;2.58;100.00
6134;BME280;3098;42.678;23.364;2023-11-21T01:21:30;94775.44;;;3.02;100.00
6134;BME280;3098;42.678;23.364;2023-11-21T01:23:59;94819.72;;;3.09;100.00
6134;BME280;3098;42.678;23.364;2023-11-21T01:26:26;94737.19;;;2.71;100.00
6134;BME280;3098;42.678;23.364;2023-11-21T01:28:54;94850.06;;;3.55;100.00
6134;BME280;3098;42.678;23.364;2023-11-21T01:31:21;94840.41;;;3.40;100.00
6134;BME280;3098;42.678;23.364;2023-11-21T01:33:48;94638.22;;;2.07;100.00
6134;BME280;3098;42.678;23.364;2023-11-21T01:36:16;94802.94;;;3.00;100.00
6134;BME280;3098;42.678;23.364;2023-11-21T01:38:45;94765.50;;;2.64;100.00
6134;BME280;3098;42.678;23.364;2023-11-21T01:41:14;94751.84;;;2.47;100.00
6134;BME280;3098;42.678;23.364;2023-11-21T01:43:41;94746.31;;;2.33;100.00
6134;BME280;3098;42.678;23.364;2023-11-21T01:46:10;94780.91;;;2.45;100.00
6134;BME280;3098;42.678;23.364;2023-11-21T01:48:37;94850.59;;;2.76;100.00
6134;BME280;3098;42.678;23.364;2023-11-21T01:51:05;94764.13;;;2.26;100.00
6134;BME280;3098;42.678;23.364;2023-11-21T01:53:33;94773.28;;;2.23;100.00
6134;BME280;3098;42.678;23.364;2023-11-21T01:56:05;94709.06;;;1.76;100.00
6134;BME280;3098;42.678;23.364;2023-11-21T01:58:33;94613.19;;;1.14;100.00
6134;BME280;3098;42.678;23.364;2023-11-21T02:01:01;94833.75;;;2.47;100.00
6134;BME280;3098;42.678;23.364;2023-11-21T02:03:29;94808.09;;;2.39;100.00
6134;BME280;3098;42.678;23.364;2023-11-21T02:05:56;94824.06;;;2.38;100.00
6134;BME280;3098;42.678;23.364;2023-11-21T02:08:24;94764.59;;;2.13;100.00
6134;BME280;3098;42.678;23.364;2023-11-21T02:10:52;94787.63;;;2.11;100.00
6134;BME280;3098;42.678;23.364;2023-11-21T02:13:20;94789.22;;;2.17;100.00
6134;BME280;3098;42.678;23.364;2023-11-21T02:15:48;94843.50;;;2.67;100.00
6134;BME280;3098;42.678;23.364;2023-11-21T02:18:17;94837.22;;;2.58;100.00
6134;BME280;3098;42.678;23.364;2023-11-21T02:20:45;94839.03;;;2.62;100.00
6134;BME280;3098;42.678;23.364;2023-11-21T02:23:14;94843.75;;;2.65;100.00
6134;BME280;3098;42.678;23.364;2023-11-21T02:25:41;94728.72;;;1.93;100.00
6134;BME280;3098;42.678;23.364;2023-11-21T02:28:09;94837.22;;;2.68;100.00
6134;BME280;3098;42.678;23.364;2023-11-21T02:30:38;94837.47;;;2.61;100.00
6134;BME280;3098;42.678;23.364;2023-11-21T02:33:05;94684.19;;;1.63;100.00
6134;BME280;3098;42.678;23.364;2023-11-21T02:35:33;94795.28;;;2.43;100.00
6134;BME280;3098;42.678;23.364;2023-11-21T02:38:00;94757.56;;;2.23;100.00
6134;BME280;3098;42.678;23.364;2023-11-21T02:40:29;94835.94;;;2.80;100.00
6134;BME280;3098;42.678;23.364;2023-11-21T02:42:56;94847.44;;;2.79;100.00
6134;BME280;3098;42.678;23.364;2023-11-21T02:45:24;94839.59;;;2.74;100.00
6134;BME280;3098;42.678;23.364;2023-11-21T02:47:52;94790.59;;;2.50;100.00
6134;BME280;3098;42.678;23.364;2023-11-21T02:50:22;94844.59;;;2.81;100.00
6134;BME280;3098;42.678;23.364;2023-11-21T02:52:49;94833.28;;;2.75;100.00
6134;BME280;3098;42.678;23.364;2023-11-21T02:55:17;94741.09;;;2.18;100.00
6134;BME280;3098;42.678;23.364;2023-11-21T02:57:46;94718.53;;;1.92;100.00
6134;BME280;3098;42.678;23.364;2023-11-21T03:00:14;94759.63;;;2.11;100.00
6134;BME280;3098;42.678;23.364;2023-11-21T03:02:42;94778.78;;;2.27;100.00
6134;BME280;3098;42.678;23.364;2023-11-21T03:05:10;94846.91;;;2.57;100.00
6134;BME280;3098;42.678;23.364;2023-11-21T03:07:37;94818.06;;;2.47;100.00
6134;BME280;3098;42.678;23.364;2023-11-21T03:10:07;94672.69;;;1.59;100.00
6134;BME280;3098;42.678;23.364;2023-11-21T03:12:36;94831.94;;;2.53;100.00
6134;BME280;3098;42.678;23.364;2023-11-21T03:15:06;94827.50;;;2.48;100.00
6134;BME280;3098;42.678;23.364;2023-11-21T03:17:33;94722.66;;;1.78;100.00
6134;BME280;3098;42.678;23.364;2023-11-21T03:20:00;94837.97;;;2.43;100.00
6134;BME280;3098;42.678;23.364;2023-11-21T03:22:29;94815.94;;;2.29;100.00
6134;BME280;3098;42.678;23.364;2023-11-21T03:24:57;94843.16;;;2.33;100.00
6134;BME280;3098;42.678;23.364;2023-11-21T03:27:26;94839.50;;;2.29;100.00
6134;BME280;3098;42.678;23.364;2023-11-21T03:29:53;94835.59;;;2.37;100.00
6134;BME280;3098;42.678;23.364;2023-11-21T03:32:23;94839.50;;;2.29;100.00
6134;BME280;3098;42.678;23.364;2023-11-21T03:34:54;94804.91;;;2.17;100.00
6134;BME280;3098;42.678;23.364;2023-11-21T03:37:24;94846.84;;;2.32;100.00
6134;BME280;3098;42.678;23.364;2023-11-21T03:39:53;94716.56;;;1.52;100.00
6134;BME280;3098;42.678;23.364;2023-11-21T03:42:21;94666.78;;;1.22;100.00
6134;BME280;3098;42.678;23.364;2023-11-21T03:44:48;94844.22;;;2.32;100.00
6134;BME280;3098;42.678;23.364;2023-11-21T03:47:15;94841.88;;;2.41;100.00
6134;BME280;3098;42.678;23.364;2023-11-21T03:49:44;94838.72;;;2.33;100.00
6134;BME280;3098;42.678;23.364;2023-11-21T03:52:12;94634.88;;;1.09;100.00
6134;BME280;3098;42.678;23.364;2023-11-21T03:54:39;94812.25;;;2.30;100.00
6134;BME280;3098;42.678;23.364;2023-11-21T03:57:06;94819.59;;;2.23;100.00
6134;BME280;3098;42.678;23.364;2023-11-21T03:59:34;94817.75;;;2.18;100.00
6134;BME280;3098;42.678;23.364;2023-11-21T04:02:02;94811.94;;;2.06;100.00
6134;BME280;3098;42.678;23.364;2023-11-21T04:04:29;94769.94;;;1.66;100.00
6134;BME280;3098;42.678;23.364;2023-11-21T04:06:57;94837.00;;;1.97;100.00
6134;BME280;3098;42.678;23.364;2023-11-21T04:09:24;94812.47;;;2.08;100.00
6134;BME280;3098;42.678;23.364;2023-11-21T04:11:52;94815.59;;;2.05;100.00
6134;BME280;3098;42.678;23.364;2023-11-21T04:14:20;94819.28;;;2.09;100.00
6134;BME280;3098;42.678;23.364;2023-11-21T04:16:47;94807.50;;;2.07;100.00
6134;BME280;3098;42.678;23.364;2023-11-21T04:19:15;94614.09;;;0.83;100.00
6134;BME280;3098;42.678;23.364;2023-11-21T04:21:42;94721.19;;;1.40;100.00
6134;BME280;3098;42.678;23.364;2023-11-21T04:24:11;94778.59;;;1.77;100.00
6134;BME280;3098;42.678;23.364;2023-11-21T04:26:39;94700.00;;;1.31;100.00
6134;BME280;3098;42.678;23.364;2023-11-21T04:29:07;94490.00;;;0.03;100.00
6134;BME280;3098;42.678;23.364;2023-11-21T04:31:34;94789.66;;;1.99;100.00
6134;BME280;3098;42.678;23.364;2023-11-21T04:34:01;94774.94;;;1.72;100.00
6134;BME280;3098;42.678;23.364;2023-11-21T04:36:29;94595.69;;;0.52;100.00
6134;BME280;3098;42.678;23.364;2023-11-21T04:38:57;94600.91;;;0.52;100.00
6134;BME280;3098;42.678;23.364;2023-11-21T04:41:27;94772.47;;;1.51;100.00
6134;BME280;3098;42.678;23.364;2023-11-21T04:43:57;94811.56;;;1.78;100.00
6134;BME280;3098;42.678;23.364;2023-11-21T04:46:26;94808.94;;;1.78;100.00
6134;BME280;3098;42.678;23.364;2023-11-21T04:48:54;94820.72;;;1.75;100.00
6134;BME280;3098;42.678;23.364;2023-11-21T04:51:21;94807.13;;;1.78;100.00
6134;BME280;3098;42.678;23.364;2023-11-21T04:53:49;94826.25;;;1.89;100.00
6134;BME280;3098;42.678;23.364;2023-11-21T04:56:16;94820.31;;;2.08;100.00
6134;BME280;3098;42.678;23.364;2023-11-21T04:58:45;94815.09;;;2.08;100.00
6134;BME280;3098;42.678;23.364;2023-11-21T05:01:13;94771.25;;;1.73;100.00
6134;BME280;3098;42.678;23.364;2023-11-21T05:03:43;94814.28;;;2.03;100.00
6134;BME280;3098;42.678;23.364;2023-11-21T05:06:12;94710.44;;;1.31;100.00
6134;BME280;3098;42.678;23.364;2023-11-21T05:08:39;94655.03;;;1.19;100.00
6134;BME280;3098;42.678;23.364;2023-11-21T05:11:08;94694.53;;;1.33;100.00
6134;BME280;3098;42.678;23.364;2023-11-21T05:13:36;94691.22;;;1.57;100.00
6134;BME280;3098;42.678;23.364;2023-11-21T05:16:07;94813.09;;;2.41;100.00
6134;BME280;3098;42.678;23.364;2023-11-21T05:18:36;94745.75;;;2.11;100.00
6134;BME280;3098;42.678;23.364;2023-11-21T05:21:06;94783.75;;;2.33;100.00
6134;BME280;3098;42.678;23.364;2023-11-21T05:23:34;94810.25;;;2.62;100.00
6134;BME280;3098;42.678;23.364;2023-11-21T05:26:02;94757.31;;;2.25;100.00
6134;BME280;3098;42.678;23.364;2023-11-21T05:28:29;94670.38;;;1.72;100.00
6134;BME280;3098;42.678;23.364;2023-11-21T05:30:56;94782.72;;;2.40;100.00
6134;BME280;3098;42.678;23.364;2023-11-21T05:33:25;94828.59;;;2.77;100.00
6134;BME280;3098;42.678;23.364;2023-11-21T05:35:52;94834.34;;;2.74;100.00
6134;BME280;3098;42.678;23.364;2023-11-21T05:38:20;94807.34;;;2.54;100.00
6134;BME280;3098;42.678;23.364;2023-11-21T05:40:48;94833.31;;;2.80;100.00
6134;BME280;3098;42.678;23.364;2023-11-21T05:43:17;94833.84;;;2.92;100.00
6134;BME280;3098;42.678;23.364;2023-11-21T05:45:45;94701.84;;;2.18;100.00
6134;BME280;3098;42.678;23.364;2023-11-21T05:48:13;94837.78;;;2.95;100.00
6134;BME280;3098;42.678;23.364;2023-11-21T05:50:43;94833.59;;;2.94;100.00
6134;BME280;3098;42.678;23.364;2023-11-21T05:53:10;94542.69;;;1.14;100.00
6134;BME280;3098;42.678;23.364;2023-11-21T05:55:37;94814.44;;;2.99;100.00
6134;BME280;3098;42.678;23.364;2023-11-21T05:58:06;94716.22;;;2.20;100.00
6134;BME280;3098;42.678;23.364;2023-11-21T06:00:34;94812.09;;;2.82;100.00
6134;BME280;3098;42.678;23.364;2023-11-21T06:03:02;94711.78;;;2.31;100.00
6134;BME280;3098;42.678;23.364;2023-11-21T06:05:32;94694.25;;;2.26;100.00
6134;BME280;3098;42.678;23.364;2023-11-21T06:08:02;94831.75;;;3.05;100.00
6134;BME280;3098;42.678;23.364;2023-11-21T06:10:30;94696.59;;;2.18;100.00
6134;BME280;3098;42.678;23.364;2023-11-21T06:12:58;94786.97;;;2.81;100.00
6134;BME280;3098;42.678;23.364;2023-11-21T06:15:26;94807.66;;;3.18;100.00
6134;BME280;3098;42.678;23.364;2023-11-21T06:17:55;94739.00;;;3.06;100.00
6134;BME280;3098;42.678;23.364;2023-11-21T06:20:26;94796.78;;;3.80;100.00
6134;BME280;3098;42.678;23.364;2023-11-21T06:22:54;94826.22;;;4.31;100.00
6134;BME280;3098;42.678;23.364;2023-11-21T06:25:24;94837.59;;;4.11;100.00
6134;BME280;3098;42.678;23.364;2023-11-21T06:27:51;94829.19;;;4.14;100.00
6134;BME280;3098;42.678;23.364;2023-11-21T06:30:20;94821.81;;;4.21;100.00
6134;BME280;3098;42.678;23.364;2023-11-21T06:32:47;94810.25;;;4.22;100.00
6134;BME280;3098;42.678;23.364;2023-11-21T06:35:18;94527.13;;;2.89;100.00
6134;BME280;3098;42.678;23.364;2023-11-21T06:37:48;94633.25;;;3.51;100.00
6134;BME280;3098;42.678;23.364;2023-11-21T06:40:25;94841.03;;;5.67;100.00
6134;BME280;3098;42.678;23.364;2023-11-21T06:42:53;94589.78;;;4.75;100.00
6134;BME280;3098;42.678;23.364;2023-11-21T06:45:22;94686.44;;;6.01;100.00
6134;BME280;3098;42.678;23.364;2023-11-21T06:47:49;94806.13;;;6.88;100.00
6134;BME280;3098;42.678;23.364;2023-11-21T06:50:17;94755.03;;;7.63;100.00
6134;BME280;3098;42.678;23.364;2023-11-21T06:52:44;94770.69;;;8.99;100.00
6134;BME280;3098;42.678;23.364;2023-11-21T06:55:12;94658.25;;;8.79;100.00
6134;BME280;3098;42.678;23.364;2023-11-21T06:57:41;94437.00;;;7.51;100.00
6134;BME280;3098;42.678;23.364;2023-11-21T07:00:09;94769.63;;;9.83;100.00
6134;BME280;3098;42.678;23.364;2023-11-21T07:02:38;94651.00;;;9.24;100.00
6134;BME280;3098;42.678;23.364;2023-11-21T07:05:08;94670.28;;;9.55;100.00
6134;BME280;3098;42.678;23.364;2023-11-21T07:07:36;94676.13;;;9.35;100.00
6134;BME280;3098;42.678;23.364;2023-11-21T07:10:05;94757.88;;;10.80;100.00
6134;BME280;3098;42.678;23.364;2023-11-21T07:12:34;94588.13;;;9.21;100.00
6134;BME280;3098;42.678;23.364;2023-11-21T07:15:03;94739.28;;;9.28;100.00
6134;BME280;3098;42.678;23.364;2023-11-21T07:17:34;94721.19;;;9.52;100.00
6134;BME280;3098;42.678;23.364;2023-11-21T07:20:03;94648.31;;;9.55;100.00
6134;BME280;3098;42.678;23.364;2023-11-21T07:22:32;94746.63;;;10.66;100.00
6134;BME280;3098;42.678;23.364;2023-11-21T07:24:59;94750.13;;;10.19;100.00
6134;BME280;3098;42.678;23.364;2023-11-21T07:27:26;94740.34;;;9.89;100.00
6134;BME280;3098;42.678;23.364;2023-11-21T07:29:54;94761.56;;;9.58;100.00
6134;BME280;3098;42.678;23.364;2023-11-21T07:32:24;94760.16;;;9.91;100.00
6134;BME280;3098;42.678;23.364;2023-11-21T07:34:53;94681.41;;;9.74;100.00
6134;BME280;3098;42.678;23.364;2023-11-21T07:37:22;94437.50;;;7.84;100.00
6134;BME280;3098;42.678;23.364;2023-11-21T07:39:50;94586.53;;;8.81;100.00
6134;BME280;3098;42.678;23.364;2023-11-21T07:42:22;94767.53;;;8.88;100.00
6134;BME280;3098;42.678;23.364;2023-11-21T07:44:50;94735.56;;;8.62;100.00
6134;BME280;3098;42.678;23.364;2023-11-21T07:47:18;94540.69;;;8.10;100.00
6134;BME280;3098;42.678;23.364;2023-11-21T07:49:47;94695.59;;;9.70;100.00
6134;BME280;3098;42.678;23.364;2023-11-21T07:52:17;94610.03;;;9.13;100.00
6134;BME280;3098;42.678;23.364;2023-11-21T07:54:48;94627.38;;;8.97;100.00
6134;BME280;3098;42.678;23.364;2023-11-21T07:57:31;94745.56;;;9.71;100.00
6134;BME280;3098;42.678;23.364;2023-11-21T08:00:03;94641.88;;;9.39;100.00
6134;BME280;3098;42.678;23.364;2023-11-21T08:02:34;94759.31;;;9.82;100.00
6134;BME280;3098;42.678;23.364;2023-11-21T08:05:10;94741.28;;;9.22;100.00
6134;BME280;3098;42.678;23.364;2023-11-21T08:07:38;94621.59;;;8.64;100.00
6134;BME280;3098;42.678;23.364;2023-11-21T08:10:08;94368.13;;;6.95;100.00
6134;BME280;3098;42.678;23.364;2023-11-21T08:12:39;94592.44;;;8.11;100.00
6134;BME280;3098;42.678;23.364;2023-11-21T08:15:08;94467.88;;;7.51;100.00
6134;BME280;3098;42.678;23.364;2023-11-21T08:17:36;94670.72;;;9.49;100.00
6134;BME280;3098;42.678;23.364;2023-11-21T08:20:07;94422.84;;;8.23;100.00
6134;BME280;3098;42.678;23.364;2023-11-21T08:22:37;94733.19;;;10.37;100.00
6134;BME280;3098;42.678;23.364;2023-11-21T08:25:07;94496.50;;;8.02;100.00
6134;BME280;3098;42.678;23.364;2023-11-21T08:27:34;94733.16;;;10.20;100.00
6134;BME280;3098;42.678;23.364;2023-11-21T08:30:02;94481.50;;;9.20;100.00
6134;BME280;3098;42.678;23.364;2023-11-21T08:32:30;94614.44;;;9.26;100.00
6134;BME280;3098;42.678;23.364;2023-11-21T08:34:58;94615.81;;;9.23;100.00
6134;BME280;3098;42.678;23.364;2023-11-21T08:37:28;94437.88;;;8.44;100.00
6134;BME280;3098;42.678;23.364;2023-11-21T08:39:58;94547.97;;;8.80;100.00
6134;BME280;3098;42.678;23.364;2023-11-21T08:42:28;94620.88;;;9.42;100.00
6134;BME280;3098;42.678;23.364;2023-11-21T08:44:56;94447.16;;;8.33;100.00
6134;BME280;3098;42.678;23.364;2023-11-21T08:47:23;94720.38;;;9.43;100.00
6134;BME280;3098;42.678;23.364;2023-11-21T08:49:52;94380.16;;;7.10;100.00
6134;BME280;3098;42.678;23.364;2023-11-21T08:52:20;94733.47;;;9.79;100.00
6134;BME280;3098;42.678;23.364;2023-11-21T08:54:51;94593.66;;;9.02;100.00
6134;BME280;3098;42.678;23.364;2023-11-21T08:57:21;94718.41;;;9.97;100.00
6134;BME280;3098;42.678;23.364;2023-11-21T08:59:51;94613.75;;;9.60;100.00
6134;BME280;3098;42.678;23.364;2023-11-21T09:02:21;94591.72;;;8.63;100.00
6134;BME280;3098;42.678;23.364;2023-11-21T09:04:48;94560.25;;;8.09;100.00
6134;BME280;3098;42.678;23.364;2023-11-21T09:07:18;94581.41;;;9.15;100.00
6134;BME280;3098;42.678;23.364;2023-11-21T09:09:46;94382.69;;;7.81;100.00
6134;BME280;3098;42.678;23.364;2023-11-21T09:12:19;94500.19;;;7.57;100.00
6134;BME280;3098;42.678;23.364;2023-11-21T09:14:48;94493.88;;;7.80;100.00
6134;BME280;3098;42.678;23.364;2023-11-21T09:17:16;94655.91;;;9.08;100.00
6134;BME280;3098;42.678;23.364;2023-11-21T09:19:45;94684.25;;;8.63;100.00
6134;BME280;3098;42.678;23.364;2023-11-21T09:22:16;94560.25;;;8.09;100.00
6134;BME280;3098;42.678;23.364;2023-11-21T09:24:45;94382.19;;;6.77;100.00
6134;BME280;3098;42.678;23.364;2023-11-21T09:27:14;94467.91;;;7.37;100.00
6134;BME280;3098;42.678;23.364;2023-11-21T09:29:46;94542.78;;;7.64;100.00
6134;BME280;3098;42.678;23.364;2023-11-21T09:32:14;94443.84;;;7.17;100.00
6134;BME280;3098;42.678;23.364;2023-11-21T09:34:44;94299.91;;;6.44;100.00
6134;BME280;3098;42.678;23.364;2023-11-21T09:37:12;94604.09;;;8.77;100.00
6134;BME280;3098;42.678;23.364;2023-11-21T09:39:45;94439.06;;;8.38;100.00
6134;BME280;3098;42.678;23.364;2023-11-21T09:42:25;94227.72;;;7.12;100.00
6134;BME280;3098;42.678;23.364;2023-11-21T09:45:03;94278.84;;;7.64;100.00
6134;BME280;3098;42.678;23.364;2023-11-21T09:47:38;94633.50;;;10.70;100.00
6134;BME280;3098;42.678;23.364;2023-11-21T09:50:06;94424.25;;;9.42;100.00
6134;BME280;3098;42.678;23.364;2023-11-21T09:52:44;94589.00;;;10.84;100.00
6134;BME280;3098;42.678;23.364;2023-11-21T09:55:17;94439.94;;;10.15;100.00
6134;BME280;3098;42.678;23.364;2023-11-21T09:57:47;94571.44;;;11.18;100.00
6134;BME280;3098;42.678;23.364;2023-11-21T10:00:19;94390.84;;;10.76;100.00
6134;BME280;3098;42.678;23.364;2023-11-21T10:02:49;94549.69;;;11.83;100.00
6134;BME280;3098;42.678;23.364;2023-11-21T10:05:18;94445.47;;;11.57;100.00
6134;BME280;3098;42.678;23.364;2023-11-21T10:07:49;94551.75;;;12.19;100.00
6134;BME280;3098;42.678;23.364;2023-11-21T10:10:19;94358.81;;;11.64;100.00
6134;BME280;3098;42.678;23.364;2023-11-21T10:12:50;94541.13;;;12.96;100.00
6134;BME280;3098;42.678;23.364;2023-11-21T10:15:23;94447.31;;;12.99;100.00
6134;BME280;3098;42.678;23.364;2023-11-21T10:17:53;94451.16;;;12.78;100.00
6134;BME280;3098;42.678;23.364;2023-11-21T10:20:23;94540.59;;;13.75;100.00
6134;BME280;3098;42.678;23.364;2023-11-21T10:22:53;94529.84;;;14.12;100.00
6134;BME280;3098;42.678;23.364;2023-11-21T10:25:22;94532.91;;;14.26;100.00
6134;BME280;3098;42.678;23.364;2023-11-21T10:27:56;94451.34;;;13.97;100.00
6134;BME280;3098;42.678;23.364;2023-11-21T10:30:32;94442.66;;;12.96;100.00
6134;BME280;3098;42.678;23.364;2023-11-21T10:33:03;94455.59;;;12.74;100.00
6134;BME280;3098;42.678;23.364;2023-11-21T10:35:46;94525.88;;;12.28;100.00
6134;BME280;3098;42.678;23.364;2023-11-21T10:38:16;94510.91;;;12.68;100.00
6134;BME280;3098;42.678;23.364;2023-11-21T10:40:43;94508.06;;;12.85;100.00
6134;BME280;3098;42.678;23.364;2023-11-21T10:43:13;94505.38;;;12.28;100.00
6134;BME280;3098;42.678;23.364;2023-11-21T10:45:42;94505.06;;;12.09;100.00
6134;BME280;3098;42.678;23.364;2023-11-21T10:48:12;94503.31;;;12.13;100.00
6134;BME280;3098;42.678;23.364;2023-11-21T10:50:48;94422.00;;;11.79;100.00
6134;BME280;3098;42.678;23.364;2023-11-21T10:53:15;94430.06;;;11.71;100.00
6134;BME280;3098;42.678;23.364;2023-11-21T10:55:44;94500.16;;;12.32;100.00
6134;BME280;3098;42.678;23.364;2023-11-21T10:58:13;94468.97;;;10.87;100.00
6134;BME280;3098;42.678;23.364;2023-11-21T11:00:44;94495.63;;;10.53;100.00
6134;BME280;3098;42.678;23.364;2023-11-21T11:03:12;94407.16;;;10.20;100.00
6134;BME280;3098;42.678;23.364;2023-11-21T11:05:40;94458.72;;;10.39;100.00
6134;BME280;3098;42.678;23.364;2023-11-21T11:08:19;94459.69;;;10.09;100.00
6134;BME280;3098;42.678;23.364;2023-11-21T11:10:52;94445.84;;;9.95;100.00
6134;BME280;3098;42.678;23.364;2023-11-21T11:13:19;94454.09;;;9.94;100.00
6134;BME280;3098;42.678;23.364;2023-11-21T11:15:49;94480.75;;;10.23;100.00
6134;BME280;3098;42.678;23.364;2023-11-21T11:18:17;94490.94;;;10.59;100.00
6134;BME280;3098;42.678;23.364;2023-11-21T11:20:47;94471.88;;;10.65;100.00
6134;BME280;3098;42.678;23.364;2023-11-21T11:23:31;94464.59;;;10.54;100.00
6134;BME280;3098;42.678;23.364;2023-11-21T11:26:10;94457.81;;;10.35;100.00
6134;BME280;3098;42.678;23.364;2023-11-21T11:28:47;94445.91;;;10.42;100.00
6134;BME280;3098;42.678;23.364;2023-11-21T11:31:29;94437.69;;;10.72;100.00
6134;BME280;3098;42.678;23.364;2023-11-21T11:34:14;94265.91;;;9.35;100.00
6134;BME280;3098;42.678;23.364;2023-11-21T11:36:51;94444.69;;;10.39;100.00
6134;BME280;3098;42.678;23.364;2023-11-21T11:39:28;94420.41;;;10.66;100.00
6134;BME280;3098;42.678;23.364;2023-11-21T11:41:56;94440.28;;;10.89;100.00
6134;BME280;3098;42.678;23.364;2023-11-21T11:44:46;94429.66;;;10.89;100.00
6134;BME280;3098;42.678;23.364;2023-11-21T11:47:20;94397.41;;;10.50;100.00
6134;BME280;3098;42.678;23.364;2023-11-21T11:49:57;94400.59;;;10.26;100.00
6134;BME280;3098;42.678;23.364;2023-11-21T11:52:32;94449.94;;;10.48;100.00
6134;BME280;3098;42.678;23.364;2023-11-21T11:55:00;94406.91;;;9.87;100.00
6134;BME280;3098;42.678;23.364;2023-11-21T11:57:30;94428.72;;;9.93;100.00
6134;BME280;3098;42.678;23.364;2023-11-21T12:00:09;94456.75;;;9.94;100.00
6134;BME280;3098;42.678;23.364;2023-11-21T12:02:39;94418.31;;;9.70;100.00
6134;BME280;3098;42.678;23.364;2023-11-21T12:05:10;94448.66;;;9.99;100.00
6134;BME280;3098;42.678;23.364;2023-11-21T12:07:46;94382.97;;;9.32;100.00
6134;BME280;3098;42.678;23.364;2023-11-21T12:10:14;94426.09;;;9.41;100.00
6134;BME280;3098;42.678;23.364;2023-11-21T12:12:48;94458.66;;;9.50;100.00
6134;BME280;3098;42.678;23.364;2023-11-21T12:15:16;94330.13;;;8.41;100.00
6134;BME280;3098;42.678;23.364;2023-11-21T12:17:46;94410.53;;;8.57;100.00
6134;BME280;3098;42.678;23.364;2023-11-21T12:20:14;94391.69;;;8.42;100.00
6134;BME280;3098;42.678;23.364;2023-11-21T12:22:44;94293.75;;;7.60;100.00
6134;BME280;3098;42.678;23.364;2023-11-21T12:25:14;94468.41;;;8.59;100.00
6134;BME280;3098;42.678;23.364;2023-11-21T12:27:45;94460.69;;;8.71;100.00
6134;BME280;3098;42.678;23.364;2023-11-21T12:30:16;94468.47;;;8.76;100.00
6134;BME280;3098;42.678;23.364;2023-11-21T12:32:49;94428.53;;;8.47;100.00
6134;BME280;3098;42.678;23.364;2023-11-21T12:35:17;94459.88;;;8.31;100.00
6134;BME280;3098;42.678;23.364;2023-11-21T12:37:45;94490.41;;;8.46;100.00
6134;BME280;3098;42.678;23.364;2023-11-21T12:40:16;94477.94;;;8.38;100.00
6134;BME280;3098;42.678;23.364;2023-11-21T12:42:45;94461.78;;;8.39;100.00
6134;BME280;3098;42.678;23.364;2023-11-21T12:45:21;94471.16;;;8.45;100.00
6134;BME280;3098;42.678;23.364;2023-11-21T12:47:55;94491.47;;;8.36;100.00
6134;BME280;3098;42.678;23.364;2023-11-21T12:50:25;94430.78;;;8.00;100.00
6134;BME280;3098;42.678;23.364;2023-11-21T12:52:57;94265.47;;;6.99;100.00
6134;BME280;3098;42.678;23.364;2023-11-21T12:55:25;94458.50;;;8.34;100.00
6134;BME280;3098;42.678;23.364;2023-11-21T12:57:54;94373.63;;;7.74;100.00
6134;BME280;3098;42.678;23.364;2023-11-21T13:00:30;94373.03;;;7.77;100.00
6134;BME280;3098;42.678;23.364;2023-11-21T13:03:01;94431.22;;;8.25;100.00
6134;BME280;3098;42.678;23.364;2023-11-21T13:05:30;94410.34;;;8.15;100.00
6134;BME280;3098;42.678;23.364;2023-11-21T13:07:58;94396.06;;;8.16;100.00
6134;BME280;3098;42.678;23.364;2023-11-21T13:10:29;94405.94;;;8.32;100.00
6134;BME280;3098;42.678;23.364;2023-11-21T13:12:57;94391.97;;;8.40;100.00
6134;BME280;3098;42.678;23.364;2023-11-21T13:15:31;94240.81;;;7.56;100.00
6134;BME280;3098;42.678;23.364;2023-11-21T13:18:00;94442.38;;;8.92;100.00
6134;BME280;3098;42.678;23.364;2023-11-21T13:20:28;94371.78;;;8.36;100.00